BIRD492 LCLK-LLER
Flight info
| Callsign | BIRD492 |
|---|---|
| Flight time | 0h 58m |
| Altitude | 34000 |
| Route | EMEDA B17 MERVA H14 NAT J10 NURIT |
| Aircraft | C750/M-SBDE3FGHRWXY/S |
Departure
| Time | 2026-04-23 13:20 |
|---|---|
| Airport | Larnaca International Airport (LCLK) |
Arrival
| Time | 2026-04-23 14:18 |
|---|---|
| Airport | Ramon International Airport (LLER) |
| Time | Latitude | Longitude | Altitude | Speed | Heading |
|---|---|---|---|---|---|
| 2026-04-23 12:53 | 34.88549 | 33.62831 | 7 ft | 0 kts | 311° |
| 2026-04-23 13:13 | 34.88549 | 33.62830 | 35 ft | 1 kts | 310° |
| 2026-04-23 13:13 | 34.88555 | 33.62808 | 7 ft | 5 kts | 269° |
| 2026-04-23 13:13 | 34.88553 | 33.62798 | 7 ft | 0 kts | 245° |
| 2026-04-23 13:13 | 34.88552 | 33.62795 | 7 ft | 2 kts | 239° |
| 2026-04-23 13:14 | 34.88534 | 33.62782 | 7 ft | 2 kts | 215° |
| 2026-04-23 13:14 | 34.88527 | 33.62777 | 7 ft | 1 kts | 210° |
| 2026-04-23 13:14 | 34.88527 | 33.62776 | 7 ft | 0 kts | 209° |
| 2026-04-23 13:14 | 34.88508 | 33.62777 | 7 ft | 9 kts | 163° |
| 2026-04-23 13:15 | 34.88467 | 33.62826 | 7 ft | 8 kts | 137° |
| 2026-04-23 13:15 | 34.88425 | 33.62876 | 8 ft | 12 kts | 135° |
| 2026-04-23 13:15 | 34.88350 | 33.62969 | 8 ft | 17 kts | 137° |
| 2026-04-23 13:15 | 34.88270 | 33.63073 | 8 ft | 16 kts | 119° |
| 2026-04-23 13:16 | 34.88311 | 33.63172 | 8 ft | 17 kts | 46° |
| 2026-04-23 13:16 | 34.88407 | 33.63290 | 7 ft | 20 kts | 45° |
| 2026-04-23 13:16 | 34.88425 | 33.63410 | 7 ft | 14 kts | 137° |
| 2026-04-23 13:16 | 34.88409 | 33.63428 | 7 ft | 0 kts | 137° |
| 2026-04-23 13:18 | 34.88408 | 33.63428 | 7 ft | 2 kts | 137° |
| 2026-04-23 13:18 | 34.88360 | 33.63488 | 8 ft | 17 kts | 135° |
| 2026-04-23 13:19 | 34.88276 | 33.63500 | 7 ft | 13 kts | 227° |
| 2026-04-23 13:19 | 34.88219 | 33.63424 | 7 ft | 11 kts | 223° |
| 2026-04-23 13:19 | 34.88209 | 33.63412 | 7 ft | 3 kts | 224° |
| 2026-04-23 13:19 | 34.87999 | 33.63156 | 9 ft | 99 kts | 224° |
| 2026-04-23 13:20 | 34.87399 | 33.62393 | 342 ft | 138 kts | 227° |
| 2026-04-23 13:20 | 34.86675 | 33.61417 | 747 ft | 166 kts | 225° |
| 2026-04-23 13:20 | 34.85889 | 33.60340 | 1502 ft | 182 kts | 228° |
| 2026-04-23 13:20 | 34.85014 | 33.59100 | 2070 ft | 196 kts | 227° |
| 2026-04-23 13:21 | 34.84011 | 33.57895 | 2518 ft | 210 kts | 223° |
| 2026-04-23 13:21 | 34.82886 | 33.56677 | 2873 ft | 222 kts | 222° |
| 2026-04-23 13:21 | 34.81502 | 33.55810 | 3243 ft | 235 kts | 191° |
| 2026-04-23 13:21 | 34.79894 | 33.55928 | 3728 ft | 218 kts | 175° |
| 2026-04-23 13:22 | 34.78381 | 33.56436 | 3909 ft | 226 kts | 163° |
| 2026-04-23 13:22 | 34.77024 | 33.57454 | 3744 ft | 234 kts | 139° |
| 2026-04-23 13:22 | 34.76063 | 33.59003 | 3787 ft | 233 kts | 127° |
| 2026-04-23 13:22 | 34.75040 | 33.60545 | 3883 ft | 233 kts | 138° |
| 2026-04-23 13:23 | 34.73823 | 33.61822 | 3895 ft | 231 kts | 143° |
| 2026-04-23 13:23 | 34.72577 | 33.63051 | 3893 ft | 231 kts | 143° |
| 2026-04-23 13:23 | 34.71361 | 33.64345 | 3895 ft | 233 kts | 140° |
| 2026-04-23 13:23 | 34.70147 | 33.65661 | 3970 ft | 242 kts | 141° |
| 2026-04-23 13:24 | 34.68900 | 33.66995 | 5233 ft | 229 kts | 141° |
| 2026-04-23 13:24 | 34.67688 | 33.68286 | 6195 ft | 240 kts | 142° |
| 2026-04-23 13:24 | 34.66424 | 33.69631 | 7168 ft | 240 kts | 141° |
| 2026-04-23 13:24 | 34.65166 | 33.70977 | 8242 ft | 243 kts | 142° |
| 2026-04-23 13:25 | 34.63888 | 33.72340 | 9307 ft | 246 kts | 142° |
| 2026-04-23 13:25 | 34.62579 | 33.73708 | 10197 ft | 250 kts | 146° |
| 2026-04-23 13:25 | 34.61016 | 33.74610 | 10971 ft | 249 kts | 166° |
| 2026-04-23 13:25 | 34.59321 | 33.75325 | 11489 ft | 271 kts | 165° |
| 2026-04-23 13:26 | 34.57463 | 33.76157 | 11813 ft | 298 kts | 163° |
| 2026-04-23 13:26 | 34.55462 | 33.77069 | 12065 ft | 324 kts | 163° |
| 2026-04-23 13:26 | 34.53259 | 33.78055 | 12219 ft | 351 kts | 163° |
| 2026-04-23 13:26 | 34.50905 | 33.79103 | 12671 ft | 363 kts | 163° |
| 2026-04-23 13:27 | 34.48533 | 33.80169 | 13521 ft | 365 kts | 163° |
| 2026-04-23 13:27 | 34.46127 | 33.81228 | 14190 ft | 369 kts | 164° |
| 2026-04-23 13:27 | 34.43689 | 33.82239 | 14867 ft | 371 kts | 165° |
| 2026-04-23 13:27 | 34.41229 | 33.83260 | 15546 ft | 375 kts | 165° |
| 2026-04-23 13:28 | 34.38759 | 33.84316 | 16242 ft | 378 kts | 164° |
| 2026-04-23 13:28 | 34.36264 | 33.85385 | 16949 ft | 382 kts | 165° |
| 2026-04-23 13:28 | 34.33740 | 33.86449 | 17682 ft | 385 kts | 165° |
| 2026-04-23 13:28 | 34.31192 | 33.87521 | 18366 ft | 389 kts | 165° |
| 2026-04-23 13:29 | 34.28656 | 33.88594 | 19026 ft | 392 kts | 165° |
| 2026-04-23 13:29 | 34.26067 | 33.89690 | 19698 ft | 396 kts | 165° |
| 2026-04-23 13:29 | 34.23449 | 33.90794 | 20367 ft | 401 kts | 165° |
| 2026-04-23 13:29 | 34.20787 | 33.91915 | 21017 ft | 406 kts | 165° |
| 2026-04-23 13:30 | 34.18103 | 33.93047 | 21696 ft | 410 kts | 165° |
| 2026-04-23 13:30 | 34.15395 | 33.94189 | 22360 ft | 414 kts | 166° |
| 2026-04-23 13:30 | 34.12692 | 33.95326 | 22955 ft | 419 kts | 166° |
| 2026-04-23 13:30 | 34.09928 | 33.96489 | 23589 ft | 423 kts | 166° |
| 2026-04-23 13:31 | 34.07136 | 33.97662 | 24117 ft | 427 kts | 166° |
| 2026-04-23 13:31 | 34.04313 | 33.98848 | 24639 ft | 431 kts | 166° |
| 2026-04-23 13:31 | 34.01463 | 34.00045 | 25159 ft | 436 kts | 166° |
| 2026-04-23 13:31 | 33.98580 | 34.01254 | 25658 ft | 440 kts | 166° |
| 2026-04-23 13:32 | 33.95666 | 34.02475 | 26151 ft | 445 kts | 166° |
| 2026-04-23 13:32 | 33.92724 | 34.03707 | 26660 ft | 449 kts | 166° |
| 2026-04-23 13:32 | 33.89760 | 34.04949 | 27194 ft | 453 kts | 166° |
| 2026-04-23 13:32 | 33.86770 | 34.06198 | 27769 ft | 457 kts | 166° |
| 2026-04-23 13:33 | 33.83799 | 34.07443 | 28695 ft | 447 kts | 166° |
| 2026-04-23 13:33 | 33.80959 | 34.08665 | 30253 ft | 419 kts | 165° |
| 2026-04-23 13:33 | 33.78276 | 34.09892 | 31205 ft | 410 kts | 166° |
| 2026-04-23 13:33 | 33.75587 | 34.11093 | 31702 ft | 414 kts | 166° |
| 2026-04-23 13:34 | 33.72878 | 34.12310 | 32280 ft | 417 kts | 166° |
| 2026-04-23 13:34 | 33.70160 | 34.13552 | 32895 ft | 419 kts | 166° |
| 2026-04-23 13:34 | 33.67416 | 34.14803 | 33440 ft | 423 kts | 166° |
| 2026-04-23 13:34 | 33.64693 | 34.16038 | 33911 ft | 407 kts | 166° |
| 2026-04-23 13:35 | 33.62040 | 34.17234 | 33927 ft | 419 kts | 167° |
| 2026-04-23 13:35 | 33.59248 | 34.18478 | 33927 ft | 435 kts | 166° |
| 2026-04-23 13:35 | 33.56353 | 34.19786 | 33939 ft | 451 kts | 166° |
| 2026-04-23 13:35 | 33.53375 | 34.21142 | 33943 ft | 465 kts | 166° |
| 2026-04-23 13:36 | 33.50305 | 34.22530 | 33943 ft | 478 kts | 166° |
| 2026-04-23 13:36 | 33.47147 | 34.23948 | 33928 ft | 490 kts | 166° |
| 2026-04-23 13:36 | 33.43918 | 34.25401 | 33941 ft | 502 kts | 165° |
| 2026-04-23 13:37 | 33.37246 | 34.28409 | 33947 ft | 522 kts | 165° |
| 2026-04-23 13:37 | 33.30377 | 34.31497 | 34286 ft | 528 kts | 165° |
| 2026-04-23 13:37 | 33.27015 | 34.33008 | 35519 ft | 502 kts | 166° |
| 2026-04-23 13:38 | 33.23830 | 34.34412 | 37154 ft | 473 kts | 167° |
| 2026-04-23 13:38 | 33.20825 | 34.35720 | 38627 ft | 451 kts | 167° |
| 2026-04-23 13:38 | 33.17910 | 34.36992 | 39433 ft | 435 kts | 168° |
| 2026-04-23 13:38 | 33.15165 | 34.38215 | 40698 ft | 409 kts | 168° |
| 2026-04-23 13:39 | 33.12505 | 34.39385 | 41221 ft | 408 kts | 169° |
| 2026-04-23 13:39 | 33.09844 | 34.40532 | 41904 ft | 398 kts | 169° |
| 2026-04-23 13:39 | 33.07322 | 34.41652 | 42957 ft | 382 kts | 169° |
| 2026-04-23 13:39 | 33.04809 | 34.42751 | 43210 ft | 388 kts | 169° |
| 2026-04-23 13:40 | 33.02296 | 34.43838 | 43544 ft | 390 kts | 169° |
| 2026-04-23 13:40 | 32.99734 | 34.44962 | 43914 ft | 392 kts | 169° |
| 2026-04-23 13:40 | 32.97168 | 34.46092 | 44249 ft | 395 kts | 169° |
| 2026-04-23 13:40 | 32.94580 | 34.47224 | 44572 ft | 397 kts | 169° |
| 2026-04-23 13:41 | 32.91988 | 34.48357 | 44859 ft | 391 kts | 169° |
| 2026-04-23 13:41 | 32.86879 | 34.50582 | 44926 ft | 399 kts | 169° |
| 2026-04-23 13:41 | 32.84230 | 34.51729 | 44944 ft | 410 kts | 169° |
| 2026-04-23 13:42 | 32.81522 | 34.52917 | 44943 ft | 419 kts | 169° |
| 2026-04-23 13:42 | 32.78793 | 34.54302 | 44920 ft | 437 kts | 161° |
| 2026-04-23 13:42 | 32.76163 | 34.56288 | 44934 ft | 457 kts | 151° |
| 2026-04-23 13:42 | 32.73650 | 34.58691 | 44948 ft | 468 kts | 149° |
| 2026-04-23 13:43 | 32.71099 | 34.61149 | 44949 ft | 476 kts | 149° |
| 2026-04-23 13:43 | 32.65830 | 34.66146 | 44938 ft | 492 kts | 149° |
| 2026-04-23 13:44 | 32.60433 | 34.71300 | 44936 ft | 508 kts | 149° |
| 2026-04-23 13:44 | 32.54829 | 34.76619 | 44936 ft | 522 kts | 149° |
| 2026-04-23 13:45 | 32.50052 | 34.81153 | 44938 ft | 534 kts | 148° |
| 2026-04-23 13:45 | 32.44176 | 34.86707 | 44933 ft | 544 kts | 148° |
| 2026-04-23 13:46 | 32.37276 | 34.93228 | 44905 ft | 544 kts | 148° |
| 2026-04-23 13:46 | 32.32331 | 34.97830 | 44925 ft | 543 kts | 150° |
| 2026-04-23 13:47 | 32.26247 | 35.03142 | 44933 ft | 544 kts | 151° |
| 2026-04-23 13:47 | 32.20171 | 35.08480 | 44939 ft | 544 kts | 150° |
| 2026-04-23 13:48 | 32.14088 | 35.13787 | 44936 ft | 544 kts | 151° |
| 2026-04-23 13:48 | 32.08008 | 35.19098 | 44938 ft | 544 kts | 151° |
| 2026-04-23 13:49 | 32.01916 | 35.24403 | 44938 ft | 544 kts | 151° |
| 2026-04-23 13:49 | 31.95860 | 35.29675 | 44927 ft | 544 kts | 151° |
| 2026-04-23 13:50 | 31.89768 | 35.34979 | 44914 ft | 544 kts | 151° |
| 2026-04-23 13:50 | 31.83465 | 35.39779 | 44912 ft | 533 kts | 160° |
| 2026-04-23 13:51 | 31.76888 | 35.43804 | 44908 ft | 529 kts | 163° |
| 2026-04-23 13:51 | 31.73473 | 35.45290 | 44897 ft | 517 kts | 172° |
| 2026-04-23 13:51 | 31.69991 | 35.46151 | 44902 ft | 507 kts | 180° |
| 2026-04-23 13:52 | 31.63131 | 35.46008 | 44907 ft | 487 kts | 197° |
| 2026-04-23 13:52 | 31.56430 | 35.44732 | 44908 ft | 492 kts | 192° |
| 2026-04-23 13:53 | 31.49592 | 35.44026 | 44902 ft | 492 kts | 192° |
| 2026-04-23 13:53 | 31.43065 | 35.42316 | 44914 ft | 479 kts | 204° |
| 2026-04-23 13:54 | 31.36712 | 35.39916 | 44913 ft | 479 kts | 203° |
| 2026-04-23 13:54 | 31.33505 | 35.38978 | 43981 ft | 476 kts | 198° |
| 2026-04-23 13:54 | 31.30181 | 35.38558 | 42941 ft | 480 kts | 191° |
| 2026-04-23 13:55 | 31.23493 | 35.38273 | 43099 ft | 481 kts | 191° |
| 2026-04-23 13:55 | 31.16920 | 35.37398 | 42583 ft | 469 kts | 194° |
| 2026-04-23 13:55 | 31.13654 | 35.37056 | 41329 ft | 470 kts | 191° |
| 2026-04-23 13:56 | 31.10419 | 35.36821 | 40467 ft | 459 kts | 191° |
| 2026-04-23 13:56 | 31.07273 | 35.36517 | 39659 ft | 447 kts | 193° |
| 2026-04-23 13:56 | 31.04202 | 35.36144 | 38823 ft | 439 kts | 193° |
| 2026-04-23 13:56 | 31.01215 | 35.35820 | 38390 ft | 422 kts | 192° |
| 2026-04-23 13:57 | 30.98313 | 35.35547 | 37218 ft | 418 kts | 192° |
| 2026-04-23 13:57 | 30.95420 | 35.35118 | 35629 ft | 420 kts | 197° |
| 2026-04-23 13:57 | 30.92637 | 35.34216 | 34334 ft | 419 kts | 205° |
| 2026-04-23 13:57 | 30.90020 | 35.32974 | 34136 ft | 392 kts | 208° |
| 2026-04-23 13:58 | 30.87536 | 35.31756 | 33390 ft | 386 kts | 208° |
| 2026-04-23 13:58 | 30.85054 | 35.30535 | 32449 ft | 386 kts | 208° |
| 2026-04-23 13:58 | 30.82603 | 35.29326 | 31635 ft | 379 kts | 208° |
| 2026-04-23 13:58 | 30.80197 | 35.28140 | 30852 ft | 372 kts | 208° |
| 2026-04-23 13:59 | 30.77816 | 35.26964 | 30084 ft | 377 kts | 208° |
| 2026-04-23 13:59 | 30.75414 | 35.25780 | 29223 ft | 374 kts | 208° |
| 2026-04-23 13:59 | 30.72994 | 35.24589 | 28375 ft | 383 kts | 207° |
| 2026-04-23 13:59 | 30.70502 | 35.23362 | 27550 ft | 391 kts | 207° |
| 2026-04-23 14:00 | 30.68839 | 35.22546 | 27017 ft | 392 kts | 207° |
| 2026-04-23 14:00 | 30.65358 | 35.20833 | 25975 ft | 414 kts | 207° |
| 2026-04-23 14:00 | 30.62757 | 35.19562 | 24801 ft | 409 kts | 207° |
| 2026-04-23 14:00 | 30.60127 | 35.18275 | 23351 ft | 410 kts | 206° |
| 2026-04-23 14:01 | 30.57503 | 35.16987 | 22144 ft | 405 kts | 206° |
| 2026-04-23 14:01 | 30.54864 | 35.15979 | 21222 ft | 402 kts | 194° |
| 2026-04-23 14:01 | 30.52102 | 35.15461 | 20367 ft | 397 kts | 192° |
| 2026-04-23 14:01 | 30.49398 | 35.14960 | 19450 ft | 389 kts | 192° |
| 2026-04-23 14:02 | 30.46743 | 35.14435 | 18162 ft | 385 kts | 192° |
| 2026-04-23 14:02 | 30.44120 | 35.13912 | 16893 ft | 378 kts | 191° |
| 2026-04-23 14:02 | 30.41554 | 35.13422 | 15694 ft | 370 kts | 191° |
| 2026-04-23 14:02 | 30.39035 | 35.12945 | 14509 ft | 364 kts | 191° |
| 2026-04-23 14:03 | 30.36553 | 35.12465 | 13366 ft | 358 kts | 191° |
| 2026-04-23 14:03 | 30.34119 | 35.11991 | 12194 ft | 351 kts | 190° |
| 2026-04-23 14:03 | 30.31740 | 35.11534 | 11071 ft | 343 kts | 190° |
| 2026-04-23 14:03 | 30.29401 | 35.11098 | 10182 ft | 333 kts | 189° |
| 2026-04-23 14:04 | 30.27202 | 35.10692 | 9876 ft | 307 kts | 189° |
| 2026-04-23 14:04 | 30.25190 | 35.10314 | 9722 ft | 280 kts | 189° |
| 2026-04-23 14:04 | 30.23304 | 35.09958 | 9116 ft | 272 kts | 189° |
| 2026-04-23 14:04 | 30.21424 | 35.09599 | 8388 ft | 272 kts | 191° |
| 2026-04-23 14:05 | 30.19603 | 35.09215 | 7692 ft | 271 kts | 192° |
| 2026-04-23 14:05 | 30.17743 | 35.08815 | 6913 ft | 274 kts | 191° |
| 2026-04-23 14:05 | 30.15853 | 35.08424 | 6203 ft | 277 kts | 192° |
| 2026-04-23 14:05 | 30.13993 | 35.08032 | 5982 ft | 264 kts | 194° |
| 2026-04-23 14:06 | 30.12409 | 35.06982 | 5927 ft | 263 kts | 229° |
| 2026-04-23 14:06 | 30.11667 | 35.05060 | 5944 ft | 265 kts | 263° |
| 2026-04-23 14:06 | 30.11526 | 35.02956 | 5956 ft | 268 kts | 255° |
| 2026-04-23 14:06 | 30.10497 | 35.01202 | 5953 ft | 266 kts | 220° |
| 2026-04-23 14:07 | 30.08750 | 35.00425 | 5973 ft | 275 kts | 190° |
| 2026-04-23 14:07 | 30.04890 | 35.00197 | 5986 ft | 280 kts | 183° |
| 2026-04-23 14:07 | 30.02936 | 35.00068 | 5985 ft | 279 kts | 185° |
| 2026-04-23 14:08 | 30.01020 | 34.99881 | 5970 ft | 279 kts | 187° |
| 2026-04-23 14:08 | 29.99100 | 34.99607 | 5959 ft | 279 kts | 189° |
| 2026-04-23 14:08 | 29.97178 | 34.99288 | 5950 ft | 282 kts | 190° |
| 2026-04-23 14:08 | 29.95223 | 34.98970 | 5934 ft | 284 kts | 188° |
| 2026-04-23 14:09 | 29.93299 | 34.98646 | 5929 ft | 277 kts | 189° |
| 2026-04-23 14:09 | 29.91361 | 34.98311 | 5927 ft | 278 kts | 190° |
| 2026-04-23 14:09 | 29.89403 | 34.97976 | 5838 ft | 282 kts | 189° |
| 2026-04-23 14:09 | 29.87520 | 34.97662 | 5722 ft | 259 kts | 190° |
| 2026-04-23 14:10 | 29.85848 | 34.97379 | 5666 ft | 236 kts | 190° |
| 2026-04-23 14:10 | 29.84197 | 34.97095 | 5665 ft | 241 kts | 188° |
| 2026-04-23 14:10 | 29.82575 | 34.96818 | 5671 ft | 234 kts | 191° |
| 2026-04-23 14:10 | 29.81004 | 34.96519 | 5628 ft | 228 kts | 192° |
| 2026-04-23 14:11 | 29.79361 | 34.96184 | 5756 ft | 240 kts | 192° |
| 2026-04-23 14:11 | 29.77744 | 34.95863 | 5705 ft | 234 kts | 191° |
| 2026-04-23 14:11 | 29.76146 | 34.95534 | 5697 ft | 240 kts | 192° |
| 2026-04-23 14:11 | 29.74519 | 34.95223 | 5647 ft | 233 kts | 191° |
| 2026-04-23 14:12 | 29.72921 | 34.94895 | 5192 ft | 236 kts | 192° |
| 2026-04-23 14:12 | 29.71356 | 34.94572 | 4977 ft | 222 kts | 192° |
| 2026-04-23 14:12 | 29.69818 | 34.94264 | 4398 ft | 228 kts | 191° |
| 2026-04-23 14:12 | 29.68266 | 34.93956 | 3982 ft | 224 kts | 191° |
| 2026-04-23 14:13 | 29.66810 | 34.93657 | 3914 ft | 205 kts | 191° |
| 2026-04-23 14:13 | 29.65477 | 34.93359 | 3890 ft | 185 kts | 193° |
| 2026-04-23 14:13 | 29.64254 | 34.93168 | 3621 ft | 167 kts | 181° |
| 2026-04-23 14:13 | 29.63176 | 34.93534 | 3090 ft | 160 kts | 148° |
| 2026-04-23 14:14 | 29.62348 | 34.94339 | 2746 ft | 161 kts | 128° |
| 2026-04-23 14:14 | 29.61665 | 34.95428 | 2413 ft | 171 kts | 119° |
| 2026-04-23 14:14 | 29.61172 | 34.96577 | 2486 ft | 158 kts | 104° |
| 2026-04-23 14:14 | 29.61052 | 34.97809 | 2290 ft | 148 kts | 75° |
| 2026-04-23 14:15 | 29.61478 | 34.98825 | 1970 ft | 140 kts | 44° |
| 2026-04-23 14:15 | 29.62273 | 34.99241 | 1804 ft | 127 kts | 359° |
| 2026-04-23 14:15 | 29.63183 | 34.99168 | 1692 ft | 128 kts | 1° |
| 2026-04-23 14:15 | 29.64055 | 34.99325 | 1353 ft | 134 kts | 13° |
| 2026-04-23 14:16 | 29.64966 | 34.99492 | 1381 ft | 129 kts | 5° |
| 2026-04-23 14:16 | 29.65843 | 34.99573 | 1229 ft | 123 kts | 3° |
| 2026-04-23 14:16 | 29.66661 | 34.99741 | 1144 ft | 114 kts | 7° |
| 2026-04-23 14:16 | 29.67423 | 34.99935 | 976 ft | 110 kts | 7° |
| 2026-04-23 14:17 | 29.68157 | 35.00113 | 861 ft | 107 kts | 11° |
| 2026-04-23 14:17 | 29.68870 | 35.00310 | 705 ft | 106 kts | 14° |
| 2026-04-23 14:17 | 29.69616 | 35.00538 | 644 ft | 114 kts | 14° |
| 2026-04-23 14:17 | 29.70361 | 35.00752 | 505 ft | 107 kts | 13° |
| 2026-04-23 14:18 | 29.71083 | 35.00955 | 366 ft | 107 kts | 15° |
| 2026-04-23 14:18 | 29.71793 | 35.01153 | 305 ft | 99 kts | 14° |
| 2026-04-23 14:18 | 29.72394 | 35.01324 | 294 ft | 73 kts | 15° |
| 2026-04-23 14:18 | 29.72738 | 35.01415 | 296 ft | 37 kts | 14° |
| 2026-04-23 14:19 | 29.69598 | 35.00533 | 648 ft | 114 kts | 14° |
| 2026-04-23 14:19 | 29.71205 | 35.00987 | 345 ft | 107 kts | 13° |
| 2026-04-23 14:19 | 29.71908 | 35.01185 | 301 ft | 97 kts | 15° |
| 2026-04-23 14:19 | 29.72477 | 35.01343 | 294 ft | 65 kts | 11° |
| 2026-04-23 14:20 | 29.72846 | 35.01447 | 296 ft | 0 kts | 14° |
| 2026-04-23 14:20 | 29.72887 | 35.01458 | 294 ft | 14 kts | 12° |
| 2026-04-23 14:20 | 29.73154 | 35.01509 | 296 ft | 45 kts | 0° |
| 2026-04-23 14:20 | 29.73336 | 35.01473 | 294 ft | 24 kts | 343° |
| 2026-04-23 14:21 | 29.73368 | 35.01341 | 295 ft | 20 kts | 270° |
| 2026-04-23 14:21 | 29.73315 | 35.01334 | 295 ft | 19 kts | 173° |
| 2026-04-23 14:21 | 29.73068 | 35.01285 | 296 ft | 39 kts | 194° |
| 2026-04-23 14:21 | 29.72849 | 35.01212 | 294 ft | 24 kts | 229° |
| 2026-04-23 14:22 | 29.72864 | 35.01013 | 294 ft | 29 kts | 257° |
| 2026-04-23 14:22 | 29.72722 | 35.00951 | 294 ft | 22 kts | 195° |
| 2026-04-23 14:22 | 29.72517 | 35.00891 | 294 ft | 16 kts | 211° |
| 2026-04-23 14:22 | 29.72511 | 35.00870 | 297 ft | 6 kts | 269° |
| 2026-04-23 14:23 | 29.72534 | 35.00813 | 298 ft | 0 kts | 284° |